Terminal Aerodrome Forecast
Issued by NWS

Home | Current Version | Previous Version | Text Only | Print | Product List | Glossary On
Versions: 1 2 3 4 5 6 7 8 9 10 11 12 13 14 15 16 17 18 19 20 21 22 23 24 25 26 27 28
000
FTUS45 KBOU 282336
TAFBJC
TAF
KBJC 282336Z 2900/2924 01015G25KT P6SM BKN007 OVC030
      TEMPO 2900/2902 5SM -SN BKN005
     FM290200 02014G22KT 1SM -SN BR BKN006 OVC010
      TEMPO 2902/2906 1/2SM SN FZFG
     FM290700 01014KT 1 1/2SM -SN BR OVC005
     FM291500 36007KT 2SM -SN BR OVC008
     FM292000 01014G22KT 5SM -SN BR SCT011 OVC020=

USA.gov is the U.S. government's official web portal to all federal, state and local government web resources and services.